createdAt,value
2019-01-30T00:02:23.126Z,3.90
2019-01-30T00:04:52.848Z,4.10
2019-01-30T00:07:21.146Z,4.43
2019-01-30T00:09:49.506Z,4.20
2019-01-30T00:12:17.952Z,4.80
2019-01-30T00:14:46.499Z,4.83
2019-01-30T00:17:14.783Z,4.87
2019-01-30T00:19:43.307Z,4.33
2019-01-30T00:22:11.995Z,4.47
2019-01-30T00:24:40.425Z,4.60
2019-01-30T00:27:09.134Z,4.27
2019-01-30T00:29:40.193Z,4.87
2019-01-30T00:32:09.109Z,4.93
2019-01-30T00:34:37.775Z,4.47
2019-01-30T00:37:06.045Z,4.57
2019-01-30T00:39:34.291Z,4.43
2019-01-30T00:42:02.581Z,4.90
2019-01-30T00:44:31.110Z,4.43
2019-01-30T00:46:59.538Z,4.37
2019-01-30T00:49:28.280Z,4.20
2019-01-30T00:51:56.682Z,4.90
2019-01-30T00:54:31.977Z,4.50
2019-01-30T00:56:54.919Z,4.40
2019-01-30T00:59:23.239Z,4.07
2019-01-30T01:01:51.729Z,5.10
2019-01-30T01:04:19.940Z,4.57
2019-01-30T01:06:48.302Z,4.73
2019-01-30T01:09:16.560Z,4.10
2019-01-30T01:11:44.821Z,4.50
2019-01-30T01:14:13.153Z,4.80
2019-01-30T01:16:41.485Z,4.40
2019-01-30T01:19:09.657Z,5.80
2019-01-30T01:21:39.076Z,4.87
2019-01-30T01:24:07.612Z,5.00
2019-01-30T01:26:36.044Z,4.43
2019-01-30T01:29:04.339Z,4.60
2019-01-30T01:31:32.598Z,4.50
2019-01-30T01:34:00.809Z,4.17
2019-01-30T01:36:29.138Z,4.63
2019-01-30T01:38:57.635Z,3.83
2019-01-30T01:41:26.026Z,4.33
2019-01-30T01:43:54.461Z,3.97
2019-01-30T01:46:22.757Z,3.97
2019-01-30T01:48:51.236Z,4.13
2019-01-30T01:51:19.663Z,4.17
2019-01-30T01:53:47.860Z,4.30
2019-01-30T01:56:16.061Z,3.80
2019-01-30T01:58:45.976Z,4.30
2019-01-30T02:01:17.495Z,4.63
2019-01-30T02:03:46.047Z,4.23
2019-01-30T02:06:14.289Z,4.03
2019-01-30T02:08:42.617Z,4.70
2019-01-30T02:11:10.850Z,4.07
2019-01-30T02:13:39.095Z,4.37
2019-01-30T02:16:07.486Z,4.13
2019-01-30T02:18:35.878Z,4.30
2019-01-30T02:21:04.186Z,4.53
2019-01-30T02:23:32.427Z,4.10
2019-01-30T02:26:01.096Z,3.90
2019-01-30T02:28:29.466Z,3.90
2019-01-30T02:30:57.667Z,3.87
2019-01-30T02:33:26.017Z,4.10
2019-01-30T02:35:54.237Z,4.07
2019-01-30T02:38:22.372Z,4.20
2019-01-30T02:40:50.771Z,3.53
2019-01-30T02:43:18.986Z,4.13
2019-01-30T02:45:47.217Z,3.97
2019-01-30T02:48:15.901Z,4.00
2019-01-30T02:50:44.085Z,4.20
2019-01-30T02:53:12.355Z,3.40
2019-01-30T02:55:40.615Z,3.87
2019-01-30T02:58:08.917Z,3.80
2019-01-30T03:00:37.597Z,4.40
2019-01-30T03:03:06.002Z,4.10
2019-01-30T03:05:34.270Z,4.07
2019-01-30T03:08:02.528Z,3.50
2019-01-30T03:10:30.717Z,4.67
2019-01-30T03:12:58.984Z,4.23
2019-01-30T03:15:27.292Z,4.13
2019-01-30T03:17:55.537Z,3.80
2019-01-30T03:20:24.611Z,3.63
2019-01-30T03:22:53.331Z,3.93
2019-01-30T03:25:22.270Z,3.63
2019-01-30T03:27:50.822Z,4.13
2019-01-30T03:30:20.282Z,4.00
2019-01-30T03:32:48.761Z,3.70
2019-01-30T03:35:17.114Z,4.13
2019-01-30T03:37:45.423Z,4.03
2019-01-30T03:40:14.927Z,4.50
2019-01-30T03:42:43.125Z,4.60
2019-01-30T03:45:11.775Z,3.60
2019-01-30T03:47:40.189Z,4.07
2019-01-30T03:50:09.111Z,3.97
2019-01-30T03:52:37.630Z,4.03
2019-01-30T03:55:06.376Z,4.20
2019-01-30T03:57:34.623Z,4.27
2019-01-30T04:00:03.011Z,4.03
2019-01-30T04:02:31.388Z,4.17
2019-01-30T04:04:59.573Z,4.40
2019-01-30T04:07:27.826Z,4.00
2019-01-30T04:09:56.490Z,3.87
2019-01-30T04:12:24.761Z,3.93
2019-01-30T04:14:53.095Z,5.00
2019-01-30T04:17:21.309Z,4.33
2019-01-30T04:19:49.586Z,3.80
2019-01-30T04:22:17.849Z,3.70
2019-01-30T04:24:46.142Z,4.37
2019-01-30T04:27:14.404Z,4.07
2019-01-30T04:29:42.855Z,3.60
2019-01-30T04:32:11.128Z,4.30
2019-01-30T04:34:39.536Z,5.63
2019-01-30T04:37:07.788Z,3.93
2019-01-30T04:39:36.107Z,4.97
2019-01-30T04:42:04.625Z,4.07
2019-01-30T04:44:33.006Z,4.67
2019-01-30T04:47:01.464Z,4.47
2019-01-30T04:49:29.688Z,4.53
2019-01-30T04:51:57.911Z,4.30
2019-01-30T04:54:26.140Z,4.50
2019-01-30T04:56:54.399Z,4.90
2019-01-30T04:59:22.727Z,4.57
2019-01-30T05:01:51.039Z,4.10
2019-01-30T05:04:19.351Z,4.63
2019-01-30T05:06:48.093Z,4.67
2019-01-30T05:09:16.581Z,4.50
2019-01-30T05:11:49.174Z,4.57
2019-01-30T05:14:17.414Z,4.50
2019-01-30T05:16:45.739Z,4.23
2019-01-30T05:19:14.300Z,4.30
2019-01-30T05:21:42.520Z,4.20
2019-01-30T05:24:10.862Z,5.20
2019-01-30T05:26:39.026Z,3.60
2019-01-30T05:29:07.265Z,4.40
2019-01-30T05:31:35.499Z,4.57
2019-01-30T05:34:03.722Z,3.93
2019-01-30T05:36:31.884Z,3.93
2019-01-30T05:39:00.158Z,4.03
2019-01-30T05:41:28.496Z,4.17
2019-01-30T05:43:56.985Z,3.90
2019-01-30T05:46:25.027Z,3.80
2019-01-30T05:48:52.970Z,3.40
2019-01-30T05:51:20.893Z,3.70
2019-01-30T05:53:48.834Z,3.27
2019-01-30T05:56:16.731Z,3.83
2019-01-30T05:58:44.701Z,3.40
2019-01-30T06:01:12.636Z,3.37
2019-01-30T06:03:40.651Z,3.23
2019-01-30T06:06:08.883Z,3.30
2019-01-30T06:08:38.550Z,3.43
2019-01-30T06:11:06.460Z,2.80
2019-01-30T06:13:37.445Z,3.17
2019-01-30T06:16:05.468Z,3.10
2019-01-30T06:18:33.475Z,3.03
2019-01-30T06:21:01.766Z,3.70
2019-01-30T06:23:29.680Z,3.30
2019-01-30T06:25:57.596Z,3.47
2019-01-30T06:28:32.528Z,3.80
2019-01-30T06:31:00.458Z,3.90
2019-01-30T06:33:28.808Z,3.67
2019-01-30T06:35:56.741Z,4.07
2019-01-30T06:38:24.668Z,3.33
2019-01-30T06:40:54.653Z,4.50
2019-01-30T06:43:22.673Z,3.50
2019-01-30T06:45:50.799Z,3.43
2019-01-30T06:48:18.712Z,3.80
2019-01-30T06:50:46.910Z,4.23
2019-01-30T06:53:15.153Z,4.57
2019-01-30T06:55:43.327Z,4.47
2019-01-30T06:58:11.568Z,3.73
2019-01-30T07:00:39.994Z,3.60
2019-01-30T07:03:08.126Z,4.20
2019-01-30T07:05:36.248Z,4.10
2019-01-30T07:08:04.401Z,4.13
2019-01-30T07:10:32.370Z,4.10
2019-01-30T07:13:00.430Z,3.70
2019-01-30T07:15:29.150Z,4.00
2019-01-30T07:17:57.254Z,3.63
2019-01-30T07:20:25.351Z,3.70
2019-01-30T07:22:53.326Z,3.83
2019-01-30T07:25:21.502Z,3.83
2019-01-30T07:27:49.507Z,4.10
2019-01-30T07:30:22.130Z,4.10
2019-01-30T07:32:50.080Z,4.30
2019-01-30T07:35:18.085Z,4.47
2019-01-30T07:37:46.027Z,4.47
2019-01-30T07:40:14.246Z,4.40
2019-01-30T07:42:42.292Z,4.53
2019-01-30T07:45:11.613Z,4.13
2019-01-30T07:47:39.627Z,4.57
2019-01-30T07:50:08.299Z,4.23
2019-01-30T07:52:36.488Z,4.37
2019-01-30T07:55:04.880Z,4.77
2019-01-30T07:57:32.759Z,4.70
2019-01-30T08:00:01.671Z,4.17
2019-01-30T08:02:29.815Z,4.27
2019-01-30T08:04:57.765Z,4.03
2019-01-30T08:07:27.687Z,3.77
2019-01-30T08:09:55.400Z,3.53
2019-01-30T08:12:23.456Z,4.43
2019-01-30T08:14:51.342Z,3.20
2019-01-30T08:17:21.045Z,3.10
2019-01-30T08:19:51.734Z,2.50
2019-01-30T08:22:18.817Z,2.27
2019-01-30T08:24:47.062Z,2.00
2019-01-30T08:27:15.565Z,2.00
2019-01-30T08:29:43.942Z,1.77
2019-01-30T08:32:12.276Z,1.40
2019-01-30T08:34:40.380Z,1.47
2019-01-30T08:37:08.344Z,1.00
2019-01-30T08:39:36.203Z,0.80
2019-01-30T08:42:04.243Z,1.00
2019-01-30T08:44:32.251Z,0.87
2019-01-30T08:47:00.230Z,1.03
2019-01-30T08:49:28.208Z,0.93
2019-01-30T08:51:56.437Z,0.50
2019-01-30T08:54:24.651Z,0.70
2019-01-30T08:56:53.305Z,0.80
2019-01-30T08:59:21.485Z,0.40
2019-01-30T09:01:49.572Z,0.67
2019-01-30T09:04:17.610Z,0.60
2019-01-30T09:06:45.467Z,0.40
2019-01-30T09:09:13.487Z,0.50
2019-01-30T09:11:41.657Z,0.40
2019-01-30T09:14:09.629Z,0.37
2019-01-30T09:16:37.530Z,0.50
2019-01-30T09:19:05.664Z,0.50
2019-01-30T09:21:33.557Z,0.50
2019-01-30T09:24:01.537Z,0.70
2019-01-30T09:26:29.707Z,0.43
2019-01-30T09:28:57.821Z,0.40
2019-01-30T09:31:25.748Z,0.40
2019-01-30T09:33:53.638Z,0.70
2019-01-30T09:36:21.731Z,0.50
2019-01-30T09:38:49.669Z,0.50
2019-01-30T09:41:18.452Z,0.50
2019-01-30T09:43:46.409Z,0.40
2019-01-30T09:46:14.341Z,1.00
2019-01-30T09:48:42.549Z,0.50
2019-01-30T09:51:10.594Z,0.40
2019-01-30T09:53:38.686Z,0.50
2019-01-30T09:56:09.489Z,0.50
2019-01-30T09:58:37.480Z,0.50
2019-01-30T10:01:05.554Z,0.60
2019-01-30T10:03:36.503Z,0.50
2019-01-30T10:06:03.526Z,0.40
2019-01-30T10:08:31.453Z,0.40
2019-01-30T10:10:59.428Z,0.70
2019-01-30T10:13:27.410Z,0.30
2019-01-30T10:15:55.369Z,0.60
2019-01-30T10:18:23.279Z,0.40
2019-01-30T10:20:51.212Z,0.43
2019-01-30T10:23:19.292Z,0.40
2019-01-30T10:25:47.445Z,0.60
2019-01-30T10:28:16.982Z,0.40
2019-01-30T10:30:45.689Z,0.50
2019-01-30T10:33:13.706Z,0.40
2019-01-30T10:35:41.763Z,0.70
2019-01-30T10:38:09.651Z,0.40
2019-01-30T10:40:37.854Z,0.43
2019-01-30T10:43:06.274Z,0.43
2019-01-30T10:45:34.367Z,0.50
2019-01-30T10:48:02.309Z,0.53
2019-01-30T10:50:30.460Z,0.60
2019-01-30T10:52:58.425Z,0.40
2019-01-30T10:55:27.171Z,0.50
2019-01-30T10:57:56.170Z,0.40
2019-01-30T11:00:26.971Z,0.50
2019-01-30T11:02:54.881Z,0.40
2019-01-30T11:05:22.935Z,0.50
2019-01-30T11:07:50.826Z,0.60
2019-01-30T11:10:18.872Z,0.40
2019-01-30T11:12:46.822Z,0.50
2019-01-30T11:15:16.051Z,0.50
2019-01-30T11:17:44.080Z,0.50
2019-01-30T11:20:12.800Z,0.50
2019-01-30T11:22:40.667Z,0.63
2019-01-30T11:25:10.839Z,0.40
2019-01-30T11:27:38.737Z,0.53
2019-01-30T11:30:06.898Z,0.57
2019-01-30T11:32:35.022Z,0.70
2019-01-30T11:35:02.878Z,0.40
2019-01-30T11:37:30.806Z,0.60
2019-01-30T11:39:58.712Z,0.43
2019-01-30T11:42:26.656Z,0.57
2019-01-30T11:44:54.571Z,0.70
2019-01-30T11:47:22.467Z,0.60
2019-01-30T11:49:50.568Z,0.83
2019-01-30T11:52:18.460Z,0.50
2019-01-30T11:54:46.525Z,0.60
2019-01-30T11:57:14.823Z,0.70
2019-01-30T11:59:42.793Z,0.50
2019-01-30T12:02:10.812Z,0.70
2019-01-30T12:04:38.823Z,0.53
2019-01-30T12:07:06.980Z,0.77
2019-01-30T12:09:36.569Z,0.60
2019-01-30T12:12:04.583Z,0.80
2019-01-30T12:14:32.552Z,0.60
2019-01-30T12:17:00.453Z,0.80
2019-01-30T12:19:28.432Z,0.40
2019-01-30T12:21:56.324Z,0.63
2019-01-30T12:24:24.363Z,0.60
2019-01-30T12:26:52.734Z,0.70
2019-01-30T12:29:20.732Z,0.80
2019-01-30T12:31:48.972Z,1.20
2019-01-30T12:34:16.946Z,0.80
2019-01-30T12:36:44.796Z,0.60
2019-01-30T12:39:12.775Z,0.60
2019-01-30T12:41:41.572Z,0.70
2019-01-30T12:44:09.602Z,0.50
2019-01-30T12:46:37.526Z,0.57
2019-01-30T12:49:05.617Z,0.70
2019-01-30T12:51:36.036Z,0.60
2019-01-30T12:54:03.550Z,0.67
2019-01-30T12:56:31.490Z,0.60
2019-01-30T12:58:59.395Z,0.70
2019-01-30T13:01:27.268Z,0.70
2019-01-30T13:03:55.263Z,0.50
2019-01-30T13:06:23.245Z,0.50
2019-01-30T13:08:51.383Z,0.60
2019-01-30T13:11:19.363Z,0.77
2019-01-30T13:13:47.258Z,0.80
2019-01-30T13:16:15.707Z,0.80
2019-01-30T13:18:43.598Z,0.77
2019-01-30T13:21:11.545Z,0.70
2019-01-30T13:26:07.275Z,0.67
2019-01-30T13:28:35.315Z,0.73
2019-01-30T13:31:05.508Z,0.53
2019-01-30T13:33:33.618Z,0.53
2019-01-30T13:36:01.568Z,0.77
2019-01-30T13:38:29.636Z,0.70
2019-01-30T13:40:57.635Z,0.80
2019-01-30T13:43:25.648Z,0.80
2019-01-30T13:45:53.627Z,0.80
2019-01-30T13:48:24.669Z,0.70
2019-01-30T13:50:53.081Z,0.67
2019-01-30T13:53:21.011Z,0.80
2019-01-30T13:55:49.409Z,0.70
2019-01-30T13:58:17.680Z,0.60
2019-01-30T14:00:45.589Z,1.00
2019-01-30T14:03:13.647Z,0.77
2019-01-30T14:05:41.607Z,0.77
2019-01-30T14:08:13.081Z,0.93
2019-01-30T14:10:41.326Z,0.80
2019-01-30T14:13:09.428Z,0.90
2019-01-30T14:15:37.443Z,1.07
2019-01-30T14:18:05.628Z,0.90
2019-01-30T14:20:34.913Z,1.23
2019-01-30T14:23:02.990Z,1.13
2019-01-30T14:25:30.939Z,1.20
2019-01-30T14:27:59.053Z,0.60
2019-01-30T14:30:28.234Z,0.83
2019-01-30T14:32:56.104Z,1.00
2019-01-30T14:35:25.485Z,0.87
2019-01-30T14:37:53.412Z,0.93
2019-01-30T14:40:21.663Z,0.70
2019-01-30T14:42:49.951Z,1.10
2019-01-30T14:45:18.276Z,0.80
2019-01-30T14:47:46.796Z,1.00
2019-01-30T14:50:16.203Z,1.20
2019-01-30T14:52:44.503Z,1.03
2019-01-30T14:55:12.572Z,1.10
2019-01-30T14:57:40.969Z,1.10
2019-01-30T15:00:12.431Z,1.20
2019-01-30T15:02:40.797Z,1.10
2019-01-30T15:05:09.881Z,1.37
2019-01-30T15:07:38.045Z,0.90
2019-01-30T15:10:06.794Z,1.17
2019-01-30T15:12:34.699Z,1.30
2019-01-30T15:15:02.970Z,1.20
2019-01-30T15:17:30.971Z,1.30
2019-01-30T15:19:58.835Z,1.17
2019-01-30T15:22:26.867Z,1.30
2019-01-30T15:27:22.546Z,1.30
2019-01-30T15:29:50.688Z,1.40
2019-01-30T15:32:18.721Z,1.47
2019-01-30T15:34:46.700Z,1.30
2019-01-30T15:37:14.796Z,1.80
2019-01-30T15:39:42.724Z,1.30
2019-01-30T15:42:10.634Z,1.40
2019-01-30T15:44:38.576Z,1.60
2019-01-30T15:47:06.632Z,1.73
2019-01-30T15:49:34.585Z,1.53
2019-01-30T15:52:02.540Z,1.67
2019-01-30T15:54:30.549Z,1.70
2019-01-30T15:56:58.645Z,1.60
2019-01-30T15:59:26.532Z,1.87
2019-01-30T16:01:54.506Z,1.83
2019-01-30T16:04:22.578Z,2.20
2019-01-30T16:06:50.467Z,1.60
2019-01-30T16:09:18.402Z,1.97
2019-01-30T16:11:46.289Z,1.50
2019-01-30T16:14:15.625Z,1.60
2019-01-30T16:16:43.816Z,1.93
2019-01-30T16:19:11.790Z,1.53
2019-01-30T16:21:39.796Z,2.07
2019-01-30T16:24:08.426Z,1.97
2019-01-30T16:26:36.455Z,1.83
2019-01-30T16:29:04.367Z,1.80
2019-01-30T16:31:32.349Z,1.80
2019-01-30T16:34:00.254Z,1.93
2019-01-30T16:36:28.380Z,1.63
2019-01-30T16:38:56.301Z,2.07
2019-01-30T16:41:24.250Z,2.13
2019-01-30T16:43:52.184Z,2.20
2019-01-30T16:46:20.067Z,2.20
2019-01-30T16:48:48.110Z,1.87
2019-01-30T16:51:16.195Z,2.37
2019-01-30T16:53:47.247Z,1.90
2019-01-30T16:56:15.286Z,1.80
2019-01-30T16:58:43.483Z,1.40
2019-01-30T17:01:11.978Z,1.60
2019-01-30T17:03:39.919Z,1.63
2019-01-30T17:06:07.946Z,1.83
2019-01-30T17:08:36.078Z,2.33
2019-01-30T17:11:04.248Z,2.10
2019-01-30T17:13:32.195Z,1.77
2019-01-30T17:16:00.151Z,2.50
2019-01-30T17:18:29.122Z,1.70
2019-01-30T17:23:24.379Z,1.40
2019-01-30T17:25:55.065Z,2.23
2019-01-30T17:28:22.971Z,1.60
2019-01-30T17:31:11.565Z,1.77
2019-01-30T17:33:40.127Z,1.80
2019-01-30T17:36:17.962Z,1.80
2019-01-30T17:38:37.877Z,1.67
2019-01-30T17:41:06.505Z,1.83
2019-01-30T17:43:34.597Z,1.93
2019-01-30T17:46:02.470Z,2.10
2019-01-30T17:48:30.390Z,1.83
2019-01-30T17:50:58.332Z,2.37
2019-01-30T17:53:26.246Z,2.40
2019-01-30T17:55:54.210Z,2.17
2019-01-30T17:58:22.214Z,1.87
2019-01-30T18:00:54.948Z,1.93
2019-01-30T18:03:23.151Z,1.90
2019-01-30T18:05:51.229Z,1.60
2019-01-30T18:08:19.291Z,1.90
2019-01-30T18:10:47.296Z,2.10
2019-01-30T18:13:15.251Z,1.80
2019-01-30T18:15:43.468Z,1.80
2019-01-30T18:18:11.490Z,1.80
2019-01-30T18:20:39.356Z,1.63
2019-01-30T18:23:08.452Z,2.07
2019-01-30T18:25:36.372Z,2.10
2019-01-30T18:28:07.226Z,2.00
2019-01-30T18:30:35.246Z,2.00
2019-01-30T18:33:03.343Z,2.67
2019-01-30T18:35:31.343Z,1.83
2019-01-30T18:37:59.318Z,1.80
2019-01-30T18:40:27.282Z,1.87
2019-01-30T18:42:55.266Z,2.00
2019-01-30T18:45:25.115Z,1.83
2019-01-30T18:47:53.122Z,1.97
2019-01-30T18:50:22.602Z,2.10
2019-01-30T18:52:50.706Z,1.93
2019-01-30T18:55:18.729Z,2.17
2019-01-30T18:57:46.885Z,1.87
2019-01-30T19:00:19.353Z,2.23
2019-01-30T19:02:47.319Z,1.57
2019-01-30T19:05:15.432Z,2.03
2019-01-30T19:07:43.622Z,1.43
2019-01-30T19:10:12.143Z,1.70
2019-01-30T19:12:40.172Z,1.70
2019-01-30T19:15:10.332Z,1.77
2019-01-30T19:17:38.288Z,2.40
2019-01-30T19:20:07.079Z,2.20
2019-01-30T19:22:34.983Z,1.80
2019-01-30T19:25:02.892Z,1.40
2019-01-30T19:27:30.949Z,1.90
2019-01-30T19:29:58.816Z,1.80
2019-01-30T19:32:27.045Z,1.97
2019-01-30T19:34:55.191Z,1.37
2019-01-30T19:37:23.082Z,1.90
2019-01-30T19:39:51.002Z,1.57
2019-01-30T19:42:18.951Z,1.63
2019-01-30T19:47:14.294Z,1.30
2019-01-30T19:49:44.849Z,1.40
2019-01-30T19:52:12.776Z,1.40
2019-01-30T19:54:40.935Z,1.63
2019-01-30T19:59:36.166Z,1.87
2019-01-30T20:02:04.047Z,1.93
2019-01-30T20:04:32.005Z,2.10
2019-01-30T20:07:00.035Z,1.73
2019-01-30T20:09:27.955Z,1.80
2019-01-30T20:11:55.998Z,1.70
2019-01-30T20:14:23.968Z,1.97
2019-01-30T20:16:51.951Z,1.80
2019-01-30T20:19:19.826Z,1.73
2019-01-30T20:21:47.713Z,1.63
2019-01-30T20:24:15.911Z,1.70
2019-01-30T20:26:43.845Z,1.63
2019-01-30T20:29:11.887Z,1.83
2019-01-30T20:31:40.037Z,1.90
2019-01-30T20:34:10.440Z,1.93
2019-01-30T20:36:37.666Z,2.10
2019-01-30T20:39:06.967Z,2.00
2019-01-30T20:41:35.089Z,2.20
2019-01-30T20:44:03.081Z,2.97
2019-01-30T20:46:32.224Z,2.17
2019-01-30T20:49:00.282Z,2.10
2019-01-30T20:51:28.310Z,2.40
2019-01-30T20:53:56.277Z,2.43
2019-01-30T20:56:24.246Z,2.00
2019-01-30T20:58:52.161Z,2.10
2019-01-30T21:01:20.311Z,2.23
2019-01-30T21:03:48.572Z,2.00
2019-01-30T21:06:16.453Z,2.60
2019-01-30T21:08:44.355Z,2.50
2019-01-30T21:11:12.429Z,2.37
2019-01-30T21:14:03.171Z,2.40
2019-01-30T21:16:32.525Z,2.30
2019-01-30T21:19:00.720Z,2.90
2019-01-30T21:21:28.913Z,2.43
2019-01-30T21:23:56.082Z,2.80
2019-01-30T21:26:24.123Z,2.80
2019-01-30T21:28:52.315Z,2.37
2019-01-30T21:31:20.667Z,2.50
2019-01-30T21:33:48.623Z,2.40
2019-01-30T21:36:16.891Z,2.73
2019-01-30T21:38:44.814Z,2.80
2019-01-30T21:41:12.731Z,3.10
2019-01-30T21:43:40.689Z,2.83
2019-01-30T21:46:08.795Z,3.00
2019-01-30T21:48:36.806Z,3.10
2019-01-30T21:51:04.801Z,2.50
2019-01-30T21:53:32.815Z,2.73
2019-01-30T21:56:00.802Z,2.33
2019-01-30T21:58:28.983Z,2.10
2019-01-30T22:00:57.295Z,2.40
2019-01-30T22:03:25.249Z,2.90
2019-01-30T22:05:53.182Z,3.00
2019-01-30T22:08:21.100Z,3.60
2019-01-30T22:10:49.031Z,3.30
2019-01-30T22:13:16.975Z,3.03
2019-01-30T22:15:44.858Z,2.30
2019-01-30T22:18:12.983Z,2.53
2019-01-30T22:20:41.003Z,2.60
2019-01-30T22:23:08.918Z,2.67
2019-01-30T22:25:36.892Z,2.43
2019-01-30T22:28:05.028Z,1.70
2019-01-30T22:30:33.909Z,2.87
2019-01-30T22:33:02.854Z,1.93
2019-01-30T22:35:31.003Z,2.20
2019-01-30T22:37:58.945Z,2.70
2019-01-30T22:40:26.938Z,2.17
2019-01-30T22:42:54.870Z,2.70
2019-01-30T22:45:22.753Z,2.90
2019-01-30T22:47:50.667Z,2.50
2019-01-30T22:50:19.046Z,3.20
2019-01-30T22:52:46.925Z,3.17
2019-01-30T22:55:15.707Z,2.93
2019-01-30T22:57:43.678Z,3.20
2019-01-30T23:00:55.262Z,3.40
2019-01-30T23:03:25.503Z,2.70
2019-01-30T23:06:06.480Z,3.13
2019-01-30T23:08:39.068Z,3.37
2019-01-30T23:11:26.099Z,3.10
2019-01-30T23:13:55.913Z,2.80
2019-01-30T23:16:43.142Z,2.87
2019-01-30T23:19:26.358Z,3.13
2019-01-30T23:22:16.171Z,2.97
2019-01-30T23:25:09.058Z,3.27
2019-01-30T23:27:42.629Z,3.40
2019-01-30T23:30:28.384Z,3.37
2019-01-30T23:33:21.360Z,2.90
2019-01-30T23:36:03.826Z,2.50
2019-01-30T23:38:45.312Z,3.03
2019-01-30T23:41:19.014Z,2.60
2019-01-30T23:43:50.923Z,2.90
2019-01-30T23:46:37.597Z,2.70
2019-01-30T23:49:42.724Z,3.43
2019-01-30T23:52:35.728Z,2.50
2019-01-30T23:55:22.126Z,2.30
2019-01-30T23:58:21.736Z,2.70
